createdAt,value
2022-12-27T00:02:04.852Z,5.23
2022-12-27T00:04:32.553Z,4.00
2022-12-27T00:09:26.043Z,3.58
2022-12-27T00:11:57.999Z,3.07
2022-12-27T00:14:27.025Z,4.32
2022-12-27T00:16:54.001Z,3.50
2022-12-27T00:19:20.920Z,3.75
2022-12-27T00:21:50.200Z,3.15
2022-12-27T00:24:17.036Z,4.65
2022-12-27T00:26:43.842Z,2.38
2022-12-27T00:29:11.083Z,3.43
2022-12-27T00:31:38.481Z,3.38
2022-12-27T00:34:07.856Z,4.38
2022-12-27T00:36:37.593Z,3.22
2022-12-27T00:39:04.870Z,3.28
2022-12-27T00:41:33.966Z,4.70
2022-12-27T00:44:00.908Z,3.28
2022-12-27T00:46:27.993Z,2.00
2022-12-27T00:48:55.488Z,4.00
2022-12-27T00:53:52.711Z,2.35
2022-12-27T00:56:22.486Z,3.13
2022-12-27T00:58:57.221Z,3.33
2022-12-27T01:01:26.069Z,2.72
2022-12-27T01:03:54.297Z,2.80
2022-12-27T01:06:23.798Z,2.55
2022-12-27T01:08:50.746Z,4.53
2022-12-27T01:11:18.612Z,3.13
2022-12-27T01:13:48.015Z,3.05
2022-12-27T01:16:16.046Z,1.60
2022-12-27T01:18:43.698Z,2.97
2022-12-27T01:23:40.341Z,4.28
2022-12-27T01:26:20.732Z,3.75
2022-12-27T01:28:49.384Z,2.22
2022-12-27T01:31:21.669Z,2.33
2022-12-27T01:33:49.058Z,2.13
2022-12-27T01:36:19.789Z,3.40
2022-12-27T01:38:50.419Z,3.72
2022-12-27T01:41:41.432Z,2.58
2022-12-27T01:44:40.484Z,2.78
2022-12-27T01:47:32.361Z,3.15
2022-12-27T01:50:08.106Z,2.35
2022-12-27T01:52:51.328Z,4.20
2022-12-27T01:55:24.020Z,2.58
2022-12-27T01:57:53.351Z,1.90
2022-12-27T02:00:20.612Z,3.45
2022-12-27T02:02:48.085Z,3.58
2022-12-27T02:07:54.804Z,1.88
2022-12-27T02:10:22.438Z,2.88
2022-12-27T02:12:52.037Z,2.05
2022-12-27T02:15:18.901Z,1.92
2022-12-27T02:17:45.763Z,2.85
2022-12-27T02:20:17.502Z,2.07
2022-12-27T02:23:27.283Z,3.38
2022-12-27T02:26:02.709Z,2.55
2022-12-27T02:28:47.969Z,2.65
2022-12-27T02:31:25.887Z,3.08
2022-12-27T02:33:53.278Z,1.85
2022-12-27T02:36:40.111Z,3.30
2022-12-27T02:39:07.186Z,1.77
2022-12-27T02:41:53.865Z,2.90
2022-12-27T02:44:39.353Z,2.63
2022-12-27T02:47:38.922Z,1.60
2022-12-27T02:50:26.565Z,1.50
2022-12-27T02:53:05.766Z,2.55
2022-12-27T02:56:22.395Z,1.73
2022-12-27T02:59:09.854Z,3.10
2022-12-27T03:01:58.467Z,2.50
2022-12-27T03:04:36.789Z,2.15
2022-12-27T03:07:22.351Z,2.00
2022-12-27T03:10:34.760Z,2.10
2022-12-27T03:13:37.958Z,3.58
2022-12-27T03:16:55.959Z,1.60
2022-12-27T03:19:59.991Z,2.22
2022-12-27T03:22:48.872Z,5.35
2022-12-27T03:25:29.539Z,2.72
2022-12-27T03:28:38.386Z,3.80
2022-12-27T03:31:30.829Z,2.10
2022-12-27T03:34:26.801Z,2.22
2022-12-27T03:37:18.639Z,2.13
2022-12-27T03:40:07.830Z,1.20
2022-12-27T03:42:58.651Z,1.83
2022-12-27T03:45:51.112Z,1.98
2022-12-27T03:48:23.793Z,2.15
2022-12-27T03:50:54.987Z,1.52
2022-12-27T03:53:41.969Z,2.03
2022-12-27T03:56:09.497Z,1.55
2022-12-27T03:58:36.364Z,2.83
2022-12-27T04:01:03.619Z,1.07
2022-12-27T04:03:30.650Z,2.00
2022-12-27T04:05:57.466Z,1.92
2022-12-27T04:08:42.839Z,1.40
2022-12-27T04:11:28.572Z,1.60
2022-12-27T04:14:13.705Z,3.47
2022-12-27T04:16:58.763Z,1.75
2022-12-27T04:19:44.126Z,2.25
2022-12-27T04:22:29.153Z,1.80
2022-12-27T04:25:14.439Z,2.13
2022-12-27T04:27:59.702Z,1.70
2022-12-27T04:30:44.989Z,1.73
2022-12-27T04:33:30.360Z,1.20
2022-12-27T04:36:05.942Z,1.90
2022-12-27T04:38:35.702Z,1.40
2022-12-27T04:41:20.761Z,2.38
2022-12-27T04:44:05.810Z,1.23
2022-12-27T04:46:51.144Z,2.22
2022-12-27T04:49:42.563Z,1.67
2022-12-27T04:52:39.731Z,1.55
2022-12-27T04:57:47.270Z,1.80
2022-12-27T05:00:33.593Z,2.95
2022-12-27T05:03:04.247Z,1.63
2022-12-27T05:05:31.378Z,1.38
2022-12-27T05:08:18.138Z,1.92
2022-12-27T05:11:03.623Z,1.30
2022-12-27T05:13:48.941Z,3.28
2022-12-27T05:16:15.773Z,1.48
2022-12-27T05:18:42.646Z,1.67
2022-12-27T05:21:09.473Z,1.75
2022-12-27T05:23:56.823Z,1.67
2022-12-27T05:26:29.525Z,2.78
2022-12-27T05:28:57.965Z,1.63
2022-12-27T05:31:26.429Z,1.73
2022-12-27T05:33:54.032Z,1.95
2022-12-27T05:36:21.410Z,1.70
2022-12-27T05:38:48.711Z,2.13
2022-12-27T05:41:16.033Z,1.37
2022-12-27T05:43:42.966Z,1.27
2022-12-27T05:46:12.729Z,1.65
2022-12-27T05:48:39.579Z,2.75
2022-12-27T05:51:15.561Z,2.08
2022-12-27T05:53:42.759Z,2.08
2022-12-27T05:56:11.882Z,1.90
2022-12-27T05:58:39.374Z,2.38
2022-12-27T06:01:14.245Z,1.10
2022-12-27T06:03:41.891Z,1.33
2022-12-27T06:06:09.467Z,1.10
2022-12-27T06:08:37.585Z,2.92
2022-12-27T06:13:32.093Z,1.47
2022-12-27T06:16:01.360Z,2.90
2022-12-27T06:18:33.872Z,1.63
2022-12-27T06:21:15.029Z,1.63
2022-12-27T06:23:44.662Z,1.85
2022-12-27T06:26:16.414Z,2.92
2022-12-27T06:28:43.569Z,3.05
2022-12-27T06:31:10.841Z,3.17
2022-12-27T06:33:37.817Z,2.75
2022-12-27T06:36:13.635Z,5.15
2022-12-27T06:38:41.557Z,3.53
2022-12-27T06:41:12.210Z,3.67
2022-12-27T06:43:39.711Z,8.27
2022-12-27T06:46:16.747Z,9.00
2022-12-27T06:48:45.055Z,5.15
2022-12-27T06:51:13.576Z,4.53
2022-12-27T06:53:40.750Z,3.30
2022-12-27T06:56:13.766Z,2.95
2022-12-27T06:58:40.618Z,2.38
2022-12-27T07:01:09.656Z,3.42
2022-12-27T07:03:37.561Z,1.85
2022-12-27T07:06:05.849Z,6.00
2022-12-27T07:08:32.955Z,4.72
2022-12-27T07:11:05.502Z,4.72
2022-12-27T07:13:37.214Z,4.93
2022-12-27T07:16:09.092Z,5.97
2022-12-27T07:18:37.706Z,8.63
2022-12-27T07:21:10.114Z,3.72
2022-12-27T07:23:37.440Z,4.22
2022-12-27T07:26:16.252Z,5.20
2022-12-27T07:28:43.467Z,5.78
2022-12-27T07:31:17.430Z,3.88
2022-12-27T07:33:45.821Z,4.00
2022-12-27T07:36:18.986Z,9.60
2022-12-27T07:38:46.100Z,8.60
2022-12-27T07:41:14.396Z,7.97
2022-12-27T07:46:20.086Z,12.85
2022-12-27T07:48:48.134Z,12.50
2022-12-27T07:51:17.820Z,6.97
2022-12-27T07:53:45.733Z,5.80
2022-12-27T07:56:20.189Z,5.38
2022-12-27T07:58:52.057Z,2.85
2022-12-27T08:01:21.365Z,6.07
2022-12-27T08:03:48.970Z,4.38
2022-12-27T08:06:29.651Z,7.13
2022-12-27T08:08:58.645Z,3.92
2022-12-27T08:11:30.172Z,6.03
2022-12-27T08:13:57.538Z,6.05
2022-12-27T08:16:26.427Z,6.67
2022-12-27T08:18:53.694Z,4.07
2022-12-27T08:21:20.669Z,8.98
2022-12-27T08:23:47.603Z,7.25
2022-12-27T08:26:14.579Z,5.20
2022-12-27T08:28:41.490Z,5.15
2022-12-27T08:31:10.903Z,5.47
2022-12-27T08:33:38.292Z,8.18
2022-12-27T08:36:53.653Z,4.97
2022-12-27T08:38:56.492Z,7.28
2022-12-27T08:41:24.122Z,11.50
2022-12-27T08:43:51.715Z,8.68
2022-12-27T08:46:19.532Z,4.85
2022-12-27T08:51:28.345Z,6.35
2022-12-27T08:53:58.644Z,5.88
2022-12-27T08:56:26.078Z,4.22
2022-12-27T08:58:52.951Z,5.18
2022-12-27T09:01:19.945Z,5.63
2022-12-27T09:03:46.902Z,6.53
2022-12-27T09:06:25.664Z,3.83
2022-12-27T09:08:54.695Z,7.20
2022-12-27T09:11:26.354Z,4.80
2022-12-27T09:13:53.300Z,5.07
2022-12-27T09:16:23.332Z,4.78
2022-12-27T09:18:52.457Z,3.70
2022-12-27T09:21:20.935Z,3.10
2022-12-27T09:23:48.672Z,3.67
2022-12-27T09:26:22.100Z,3.28
2022-12-27T09:28:49.990Z,2.28
2022-12-27T09:31:18.464Z,3.40
2022-12-27T09:33:45.480Z,2.85
2022-12-27T09:36:18.539Z,2.85
2022-12-27T09:38:46.428Z,4.20
2022-12-27T09:44:44.159Z,5.57
2022-12-27T09:47:13.068Z,2.25
2022-12-27T09:49:54.059Z,3.50
2022-12-27T09:52:44.039Z,3.25
2022-12-27T09:55:31.166Z,3.15
2022-12-27T09:58:21.006Z,4.20
2022-12-27T10:00:51.238Z,3.58
2022-12-27T10:03:24.335Z,3.38
2022-12-27T10:05:58.176Z,2.25
2022-12-27T10:08:45.435Z,5.82
2022-12-27T10:11:41.150Z,2.95
2022-12-27T10:14:33.953Z,2.10
2022-12-27T10:17:08.367Z,2.90
2022-12-27T10:19:58.247Z,1.48
2022-12-27T10:22:35.409Z,2.38
2022-12-27T10:25:11.243Z,1.63
2022-12-27T10:27:39.476Z,2.67
2022-12-27T10:30:13.283Z,2.20
2022-12-27T10:32:40.078Z,2.40
2022-12-27T10:35:07.726Z,2.13
2022-12-27T10:37:34.532Z,3.00
2022-12-27T10:40:23.906Z,1.75
2022-12-27T10:43:17.293Z,2.05
2022-12-27T10:45:44.695Z,2.83
2022-12-27T10:48:47.473Z,1.77
2022-12-27T10:51:16.684Z,1.90
2022-12-27T10:53:46.497Z,3.35
2022-12-27T10:56:39.007Z,2.97
2022-12-27T10:59:11.510Z,1.90
2022-12-27T11:01:38.883Z,2.13
2022-12-27T11:04:20.898Z,2.53
2022-12-27T11:06:53.556Z,3.50
2022-12-27T11:09:34.655Z,2.17
2022-12-27T11:12:21.687Z,2.58
2022-12-27T11:14:55.960Z,11.80
2022-12-27T11:17:39.603Z,5.03
2022-12-27T11:20:14.955Z,5.22
2022-12-27T11:22:50.429Z,3.08
2022-12-27T11:25:17.374Z,5.30
2022-12-27T11:27:54.715Z,7.22
2022-12-27T11:30:40.485Z,4.20
2022-12-27T11:33:24.551Z,3.78
2022-12-27T11:35:54.796Z,6.43
2022-12-27T11:38:31.907Z,2.72
2022-12-27T11:41:05.068Z,5.07
2022-12-27T11:43:39.290Z,4.22
2022-12-27T11:46:13.785Z,5.70
2022-12-27T11:48:46.670Z,3.40
2022-12-27T11:51:38.173Z,4.07
2022-12-27T11:54:55.600Z,4.97
2022-12-27T12:00:27.247Z,7.13
2022-12-27T12:03:12.166Z,4.55
2022-12-27T12:05:51.025Z,3.75
2022-12-27T12:08:24.177Z,3.40
2022-12-27T12:11:09.119Z,4.95
2022-12-27T12:13:50.570Z,5.15
2022-12-27T12:16:34.006Z,5.93
2022-12-27T12:19:04.208Z,5.22
2022-12-27T12:21:55.438Z,5.72
2022-12-27T12:24:28.837Z,8.07
2022-12-27T12:27:22.327Z,6.20
2022-12-27T12:30:02.006Z,7.88
2022-12-27T12:32:59.193Z,4.60
2022-12-27T12:35:26.621Z,6.65
2022-12-27T12:37:53.574Z,9.32
2022-12-27T12:41:11.936Z,9.65
2022-12-27T12:44:10.471Z,6.95
2022-12-27T12:46:49.840Z,5.90
2022-12-27T12:49:39.423Z,6.07
2022-12-27T12:52:44.472Z,5.35
2022-12-27T12:55:43.320Z,7.97
2022-12-27T12:58:36.944Z,7.28
2022-12-27T13:01:31.605Z,3.83
2022-12-27T13:04:28.753Z,2.85
2022-12-27T13:07:17.516Z,6.05
2022-12-27T13:10:00.151Z,6.03
2022-12-27T13:12:52.273Z,8.27
2022-12-27T13:15:40.605Z,6.15
2022-12-27T13:21:07.551Z,4.15
2022-12-27T13:23:34.316Z,5.32
2022-12-27T13:26:09.109Z,3.50
2022-12-27T13:28:49.286Z,4.38
2022-12-27T13:31:34.531Z,5.30
2022-12-27T13:34:19.737Z,7.38
2022-12-27T13:37:04.806Z,3.65
2022-12-27T13:39:54.452Z,6.95
2022-12-27T13:42:27.548Z,7.95
2022-12-27T13:45:07.877Z,4.18
2022-12-27T13:47:42.278Z,5.30
2022-12-27T13:50:24.650Z,5.65
2022-12-27T13:53:20.874Z,3.45
2022-12-27T13:56:27.362Z,6.15
2022-12-27T13:59:19.846Z,3.05
2022-12-27T14:02:12.180Z,6.13
2022-12-27T14:04:47.382Z,5.50
2022-12-27T14:07:20.830Z,7.18
2022-12-27T14:09:59.281Z,5.35
2022-12-27T14:12:50.648Z,9.45
2022-12-27T14:15:42.715Z,3.80
2022-12-27T14:20:46.449Z,16.85
2022-12-27T14:23:28.229Z,11.15
2022-12-27T14:26:00.849Z,13.93
2022-12-27T14:28:59.683Z,12.80
2022-12-27T14:32:04.385Z,10.63
2022-12-27T14:35:09.201Z,7.95
2022-12-27T14:37:54.658Z,7.95
2022-12-27T14:40:39.688Z,6.60
2022-12-27T14:43:24.835Z,9.57
2022-12-27T14:46:22.288Z,4.80
2022-12-27T14:49:24.039Z,7.53
2022-12-27T14:52:19.601Z,5.07
2022-12-27T14:55:01.416Z,4.05
2022-12-27T14:57:42.407Z,3.60
2022-12-27T15:00:15.445Z,7.10
2022-12-27T15:02:53.544Z,5.15
2022-12-27T15:05:44.834Z,5.40
2022-12-27T15:08:26.688Z,4.15
2022-12-27T15:11:21.508Z,2.63
2022-12-27T15:13:57.770Z,5.03
2022-12-27T15:16:39.647Z,4.57
2022-12-27T15:19:40.269Z,3.80
2022-12-27T15:22:26.393Z,3.17
2022-12-27T15:25:14.073Z,5.15
2022-12-27T15:27:53.170Z,3.22
2022-12-27T15:30:19.970Z,4.28
2022-12-27T15:33:05.049Z,4.13
2022-12-27T15:35:59.108Z,4.22
2022-12-27T15:38:53.348Z,6.07
2022-12-27T15:41:20.954Z,6.15
2022-12-27T15:43:53.663Z,7.82
2022-12-27T15:46:55.970Z,9.25
2022-12-27T15:49:48.915Z,3.83
2022-12-27T15:52:37.342Z,4.93
2022-12-27T15:55:46.357Z,6.18
2022-12-27T15:58:22.883Z,5.43
2022-12-27T16:01:25.704Z,6.55
2022-12-27T16:03:54.180Z,4.93
2022-12-27T16:06:44.680Z,3.72
2022-12-27T16:09:26.560Z,3.55
2022-12-27T16:12:06.974Z,6.85
2022-12-27T16:14:36.665Z,5.68
2022-12-27T16:17:39.611Z,5.00
2022-12-27T16:20:09.396Z,5.18
2022-12-27T16:22:42.511Z,4.20
2022-12-27T16:25:28.626Z,6.80
2022-12-27T16:28:03.743Z,5.80
2022-12-27T16:30:38.909Z,6.20
2022-12-27T16:33:19.919Z,6.95
2022-12-27T16:36:01.569Z,7.93
2022-12-27T16:38:29.669Z,6.40
2022-12-27T16:41:29.862Z,6.05
2022-12-27T16:44:02.857Z,6.55
2022-12-27T16:46:56.719Z,5.88
2022-12-27T16:49:37.808Z,5.72
2022-12-27T16:52:13.423Z,9.85
2022-12-27T16:55:02.877Z,8.77
2022-12-27T16:57:42.899Z,13.35
2022-12-27T17:00:31.142Z,8.52
2022-12-27T17:03:20.869Z,13.93
2022-12-27T17:06:30.014Z,10.88
2022-12-27T17:08:39.324Z,9.68
2022-12-27T17:11:30.339Z,10.95
2022-12-27T17:14:30.128Z,13.48
2022-12-27T17:17:02.907Z,20.42
2022-12-27T17:19:38.966Z,9.35
2022-12-27T17:22:10.822Z,7.57
2022-12-27T17:24:37.614Z,9.43
2022-12-27T17:27:34.748Z,10.88
2022-12-27T17:30:46.865Z,12.23
2022-12-27T17:33:21.472Z,11.50
2022-12-27T17:36:33.433Z,11.05
2022-12-27T17:39:24.473Z,8.88
2022-12-27T17:42:15.752Z,8.70
2022-12-27T17:44:51.123Z,5.35
2022-12-27T17:47:39.012Z,4.13
2022-12-27T17:52:57.438Z,5.25
2022-12-27T17:55:45.565Z,4.72
2022-12-27T17:58:16.131Z,4.88
2022-12-27T18:00:59.510Z,3.63
2022-12-27T18:03:37.492Z,5.60
2022-12-27T18:06:05.077Z,6.15
2022-12-27T18:08:34.232Z,5.70
2022-12-27T18:11:02.955Z,20.55
2022-12-27T18:13:39.809Z,9.35
2022-12-27T18:16:18.420Z,4.55
2022-12-27T18:18:48.622Z,6.30
2022-12-27T18:21:27.296Z,8.02
2022-12-27T18:23:55.076Z,5.72
2022-12-27T18:26:37.986Z,11.77
2022-12-27T18:29:08.688Z,7.28
2022-12-27T18:31:42.182Z,6.78
2022-12-27T18:34:23.786Z,6.00
2022-12-27T18:36:59.169Z,10.68
2022-12-27T18:39:40.729Z,6.28
2022-12-27T18:42:35.422Z,4.60
2022-12-27T18:45:22.690Z,6.57
2022-12-27T18:47:53.934Z,6.38
2022-12-27T18:50:27.319Z,6.43
2022-12-27T18:53:35.378Z,6.68
2022-12-27T18:56:06.582Z,4.63
2022-12-27T18:58:35.139Z,8.13
2022-12-27T19:01:06.467Z,4.43
2022-12-27T19:03:40.171Z,6.65
2022-12-27T19:06:10.749Z,6.63
2022-12-27T19:08:43.922Z,7.03
2022-12-27T19:11:29.332Z,6.28
2022-12-27T19:14:00.966Z,5.55
2022-12-27T19:16:30.557Z,5.28
2022-12-27T19:19:20.368Z,5.53
2022-12-27T19:21:49.374Z,5.75
2022-12-27T19:24:28.227Z,10.57
2022-12-27T19:26:57.727Z,6.15
2022-12-27T19:29:36.542Z,10.73
2022-12-27T19:32:09.646Z,17.85
2022-12-27T19:34:46.066Z,14.90
2022-12-27T19:37:13.312Z,38.42
2022-12-27T19:39:47.742Z,31.40
2022-12-27T19:42:28.043Z,36.00
2022-12-27T19:44:54.928Z,17.63
2022-12-27T19:47:24.166Z,42.83
2022-12-27T19:49:51.449Z,26.38
2022-12-27T19:52:22.792Z,21.23
2022-12-27T19:54:52.501Z,29.67
